Fleming, Pennsylvania
Current Conditions -  °F | °C
As of 4:35 AM on Saturday 29 Nov 2014 (Local Time) from KUNV Reporting Station
Light Snow Light Snow  
Wind Chill: 22°   Ceiling: 1000
Heat Index: 22°   Visibility: 1.7mi
Dew Point: 20°   Wind: 0mph
Humidity: 93%   Direction: NA
Pressure: 30.21"   Gusts: NA
Location:  40.91°N, 77.88°W
Report Text: KUNV 290935Z AUTO 00000KT 1 3/4SM -SN OVC010 M06/M07 A3021 RMK AO2 T10561066
Loading
Personal Weather Stations






























Interactive Weather Map New forecast layout! Learn more

10-Day Weather Forecast

Advertisements
Track Severe Weather on mobile